Time;durP1;ratioP1;P1;durP2;ratioP2;P2;SDS_P1;SDS_P2;PMS_P1;PMS_P2;Temp;Humidity;BMP_temperature;BMP_pressure;BME280_temperature;BME280_humidity;BME280_pressure;Samples;Min_cycle;Max_cycle;Signal;HPM_P1;HPM_P2
2021/12/15 00:01:20;0.00;0.00;0.62;0.00;0.00;0.62;3.43;3.13;;;23.20;29.10;;;;;;2258103;61;20358;-62
2021/12/15 00:04:05;0.00;0.00;0.62;0.00;0.00;0.62;4.80;4.40;;;23.10;28.90;;;;;;2257032;61;20410;-63
2021/12/15 00:06:51;0.00;0.00;0.62;0.00;0.00;0.62;6.70;4.00;;;23.10;28.80;;;;;;2257786;61;20475;-61
2021/12/15 00:09:36;0.00;0.00;0.62;0.00;0.00;0.62;6.20;3.47;;;23.10;28.80;;;;;;2257995;61;20383;-61
2021/12/15 00:12:22;0.00;0.00;0.62;0.00;0.00;0.62;4.60;3.97;;;23.10;28.80;;;;;;2257116;61;20394;-62
2021/12/15 00:15:08;0.00;0.00;0.62;0.00;0.00;0.62;5.20;4.70;;;23.00;28.70;;;;;;2257943;61;20460;-63
2021/12/15 00:17:54;0.00;0.00;0.62;0.00;0.00;0.62;4.70;4.17;;;23.00;28.70;;;;;;2257767;61;20363;-59
2021/12/15 00:20:41;0.00;0.00;0.62;0.00;0.00;0.62;4.47;4.03;;;23.00;28.70;;;;;;2257239;61;20363;-61
2021/12/15 00:23:27;0.00;0.00;0.62;0.00;0.00;0.62;4.93;4.43;;;23.00;28.70;;;;;;2257888;61;20355;-62
2021/12/15 00:26:13;0.00;0.00;0.62;0.00;0.00;0.62;5.33;4.83;;;22.90;28.60;;;;;;2257321;61;20386;-64
2021/12/15 00:28:58;0.00;0.00;0.62;0.00;0.00;0.62;3.93;3.53;;;22.90;28.60;;;;;;2257584;61;20770;-61
2021/12/15 00:31:46;0.00;0.00;0.62;0.00;0.00;0.62;4.60;4.20;;;22.90;28.70;;;;;;2257993;61;20410;-63
2021/12/15 00:34:34;0.00;0.00;0.62;0.00;0.00;0.62;4.87;3.93;;;22.90;28.70;;;;;;2256925;61;20382;-66
2021/12/15 00:37:21;0.00;0.00;0.62;0.00;0.00;0.62;4.17;3.80;;;22.90;28.80;;;;;;2257601;61;20366;-63
2021/12/15 00:40:13;0.00;0.00;0.62;0.00;0.00;0.62;4.27;3.87;;;22.80;28.70;;;;;;2257838;61;20563;-60
2021/12/15 00:42:59;0.00;0.00;0.62;0.00;0.00;0.62;4.57;4.17;;;22.80;28.80;;;;;;2257328;61;20703;-61
2021/12/15 00:45:45;0.00;0.00;0.62;0.00;0.00;0.62;4.23;3.83;;;22.80;28.80;;;;;;2257340;61;20382;-62
2021/12/15 00:48:30;0.00;0.00;0.62;0.00;0.00;0.62;4.30;3.90;;;22.80;28.80;;;;;;2256503;61;20362;-64
2021/12/15 00:51:16;0.00;0.00;0.62;0.00;0.00;0.62;4.20;3.80;;;22.70;28.80;;;;;;2257147;61;20363;-63
2021/12/15 00:54:01;0.00;0.00;0.62;0.00;0.00;0.62;6.47;3.70;;;22.70;28.80;;;;;;2257772;61;20371;-63
2021/12/15 00:56:47;0.00;0.00;0.62;0.00;0.00;0.62;4.30;3.90;;;22.70;28.80;;;;;;2256477;61;20390;-61
2021/12/15 00:59:32;0.00;0.00;0.62;0.00;0.00;0.62;4.20;3.80;;;22.70;28.80;;;;;;2257803;61;20367;-59
2021/12/15 01:02:17;0.00;0.00;0.62;0.00;0.00;0.62;5.10;3.60;;;22.60;28.80;;;;;;2257620;61;20382;-60
2021/12/15 01:05:03;0.00;0.00;0.62;0.00;0.00;0.62;4.00;3.60;;;22.60;28.80;;;;;;2256968;61;20450;-64
2021/12/15 01:07:48;0.00;0.00;0.62;0.00;0.00;0.62;3.90;3.50;;;22.60;28.90;;;;;;2257871;61;20370;-62
2021/12/15 01:10:58;0.00;0.00;0.62;0.00;0.00;0.62;4.30;3.90;;;22.60;28.90;;;;;;2257195;61;20381;-63
2021/12/15 01:20:08;0.00;0.00;0.62;0.00;0.00;0.62;4.90;3.40;;;22.60;29.00;;;;;;2257089;61;20402;-64
2021/12/15 01:22:57;0.00;0.00;0.62;0.00;0.00;0.62;3.67;3.37;;;22.50;29.00;;;;;;2257806;61;20378;-62
2021/12/15 01:25:47;0.00;0.00;0.62;0.00;0.00;0.62;4.67;3.43;;;22.50;29.00;;;;;;2256742;61;20636;-64
2021/12/15 01:28:32;0.00;0.00;0.62;0.00;0.00;0.62;4.40;4.00;;;22.50;29.00;;;;;;2257045;61;20652;-63
2021/12/15 01:31:19;0.00;0.00;0.62;0.00;0.00;0.62;3.80;3.17;;;22.50;29.00;;;;;;2257428;61;20350;-62
2021/12/15 01:34:04;0.00;0.00;0.62;0.00;0.00;0.62;3.87;3.47;;;22.50;29.00;;;;;;2256098;61;20371;-62
2021/12/15 01:36:50;0.00;0.00;0.62;0.00;0.00;0.62;3.80;3.40;;;22.50;29.10;;;;;;2257750;61;20639;-64
2021/12/15 01:39:35;0.00;0.00;0.62;0.00;0.00;0.62;3.90;3.47;;;22.50;29.10;;;;;;2257186;61;20395;-63
2021/12/15 01:42:20;0.00;0.00;0.62;0.00;0.00;0.62;3.57;3.23;;;22.50;29.10;;;;;;2256769;61;20830;-62
2021/12/15 01:48:15;0.00;0.00;0.62;0.00;0.00;0.62;3.97;3.57;;;22.40;29.00;;;;;;2256541;61;20405;-61
2021/12/15 01:51:00;0.00;0.00;0.62;0.00;0.00;0.62;4.13;3.73;;;22.40;29.10;;;;;;2257357;61;20515;-62
2021/12/15 01:53:45;0.00;0.00;0.62;0.00;0.00;0.62;4.40;4.00;;;22.40;29.10;;;;;;2257687;61;20383;-64
2021/12/15 01:56:31;0.00;0.00;0.62;0.00;0.00;0.62;3.77;3.37;;;22.40;29.10;;;;;;2256196;61;20784;-61
2021/12/15 01:59:19;0.00;0.00;0.62;0.00;0.00;0.62;4.50;3.63;;;22.40;29.10;;;;;;2257381;61;20457;-63
2021/12/15 02:02:06;0.00;0.00;0.62;0.00;0.00;0.62;4.13;3.73;;;22.40;29.10;;;;;;2257196;61;20382;-61
2021/12/15 02:04:54;0.00;0.00;0.62;0.00;0.00;0.62;4.40;4.00;;;22.40;29.10;;;;;;2256526;61;20386;-62
2021/12/15 02:07:42;0.00;0.00;0.62;0.00;0.00;0.62;4.73;3.87;;;22.30;29.10;;;;;;2257336;61;20366;-64
2021/12/15 02:10:30;0.00;0.00;0.62;0.00;0.00;0.62;4.47;4.07;;;22.30;29.10;;;;;;2256613;61;20433;-62
2021/12/15 02:13:18;0.00;0.00;0.62;0.00;0.00;0.62;4.53;4.10;;;22.30;29.10;;;;;;2257362;61;20432;-60
2021/12/15 02:16:07;0.00;0.00;0.62;0.00;0.00;0.62;4.83;4.33;;;22.30;29.10;;;;;;2257349;61;20374;-62
2021/12/15 02:18:52;0.00;0.00;0.62;0.00;0.00;0.62;4.93;4.43;;;22.30;29.10;;;;;;2256233;61;20478;-63
2021/12/15 02:21:39;0.00;0.00;0.62;0.00;0.00;0.62;4.37;3.80;;;22.30;29.10;;;;;;2257675;61;20370;-62
2021/12/15 02:24:23;0.00;0.00;0.62;0.00;0.00;0.62;4.73;4.20;;;22.30;29.10;;;;;;2256497;61;20366;-62
2021/12/15 02:27:11;0.00;0.00;0.62;0.00;0.00;0.62;5.03;4.53;;;22.30;29.10;;;;;;2257319;61;20383;-60
2021/12/15 02:30:05;0.00;0.00;0.62;0.00;0.00;0.62;4.47;4.07;;;22.30;29.20;;;;;;2257104;61;20452;-62
2021/12/15 02:33:04;0.00;0.00;0.62;0.00;0.00;0.62;4.60;3.97;;;22.30;29.20;;;;;;2256377;61;20394;-61
2021/12/15 02:38:58;0.00;0.00;0.62;0.00;0.00;0.62;5.00;4.50;;;22.30;29.20;;;;;;2256553;61;20418;-62
2021/12/15 02:41:45;0.00;0.00;0.62;0.00;0.00;0.62;4.73;4.27;;;22.30;29.20;;;;;;2256632;61;20363;-62
2021/12/15 02:44:30;0.00;0.00;0.62;0.00;0.00;0.62;5.93;4.97;;;22.30;29.20;;;;;;2257049;61;20383;-63
2021/12/15 02:47:20;0.00;0.00;0.62;0.00;0.00;0.62;5.10;4.43;;;22.30;29.20;;;;;;2256401;61;20367;-60
2021/12/15 02:50:10;0.00;0.00;0.62;0.00;0.00;0.62;4.90;4.40;;;22.30;29.20;;;;;;2257278;61;20810;-62
2021/12/15 02:52:58;0.00;0.00;0.62;0.00;0.00;0.62;4.80;4.30;;;22.30;29.20;;;;;;2257109;61;20374;-59
2021/12/15 02:55:44;0.00;0.00;0.62;0.00;0.00;0.62;4.50;4.10;;;22.20;29.20;;;;;;2256562;61;20436;-61
2021/12/15 02:58:33;0.00;0.00;0.62;0.00;0.00;0.62;5.40;4.90;;;22.20;29.20;;;;;;2257301;61;20386;-63
2021/12/15 03:01:30;0.00;0.00;0.62;0.00;0.00;0.62;4.87;4.17;;;22.30;29.30;;;;;;2257418;61;20363;-61
2021/12/15 03:16:23;0.00;0.00;0.62;0.00;0.00;0.62;5.93;5.33;;;22.20;29.30;;;;;;2257467;61;20390;-61
2021/12/15 03:19:08;0.00;0.00;0.62;0.00;0.00;0.62;6.00;4.87;;;22.20;29.30;;;;;;2257957;61;20386;-63
2021/12/15 03:21:53;0.00;0.00;0.62;0.00;0.00;0.62;5.87;5.07;;;22.20;29.30;;;;;;2258223;61;20403;-61
2021/12/15 03:24:38;0.00;0.00;0.62;0.00;0.00;0.62;5.50;4.60;;;22.20;29.40;;;;;;2257035;61;20397;-64
2021/12/15 03:33:14;0.00;0.00;0.62;0.00;0.00;0.62;6.43;5.73;;;22.10;29.30;;;;;;2257946;61;20571;-60
2021/12/15 03:33:39;0.00;0.00;0.62;0.00;0.00;0.62;5.30;4.70;;;22.10;29.30;;;;;;2257342;61;20399;-63
2021/12/15 03:36:52;0.00;0.00;0.62;0.00;0.00;0.62;6.13;5.10;;;22.10;29.30;;;;;;2258019;61;20407;-60
2021/12/15 03:39:45;0.00;0.00;0.62;0.00;0.00;0.62;6.00;5.40;;;22.10;29.40;;;;;;2257271;61;20359;-61
2021/12/15 03:42:36;0.00;0.00;0.62;0.00;0.00;0.62;6.17;5.57;;;22.10;29.40;;;;;;2258167;61;20366;-60
2021/12/15 03:45:27;0.00;0.00;0.62;0.00;0.00;0.62;6.37;5.77;;;22.10;29.40;;;;;;2257438;61;20379;-60
2021/12/15 03:48:19;0.00;0.00;0.62;0.00;0.00;0.62;5.53;4.60;;;22.10;29.40;;;;;;2257492;61;20627;-61
2021/12/15 03:51:05;0.00;0.00;0.62;0.00;0.00;0.62;6.53;5.70;;;22.10;29.40;;;;;;2258004;61;20386;-62
2021/12/15 03:53:51;0.00;0.00;0.62;0.00;0.00;0.62;5.53;4.90;;;22.10;29.50;;;;;;2257001;61;20394;-61
2021/12/15 03:56:39;0.00;0.00;0.62;0.00;0.00;0.62;5.40;4.90;;;22.10;29.50;;;;;;2257749;61;20355;-61
2021/12/15 03:59:25;0.00;0.00;0.62;0.00;0.00;0.62;5.73;5.17;;;22.10;29.50;;;;;;2258187;61;20382;-61
2021/12/15 04:02:12;0.00;0.00;0.62;0.00;0.00;0.62;5.83;5.23;;;22.00;29.40;;;;;;2256995;61;20359;-61
2021/12/15 04:04:58;0.00;0.00;0.62;0.00;0.00;0.62;5.83;5.23;;;22.10;29.50;;;;;;2257926;61;20379;-64
2021/12/15 04:07:44;0.00;0.00;0.62;0.00;0.00;0.62;5.67;5.17;;;22.10;29.50;;;;;;2257485;61;20358;-62
2021/12/15 04:10:29;0.00;0.00;0.62;0.00;0.00;0.62;5.50;4.50;;;22.00;29.50;;;;;;2257136;61;20402;-62
2021/12/15 04:13:14;0.00;0.00;0.62;0.00;0.00;0.62;5.40;4.90;;;22.00;29.50;;;;;;2257610;61;20382;-63
2021/12/15 04:16:06;0.00;0.00;0.62;0.00;0.00;0.62;4.87;4.47;;;22.10;29.50;;;;;;2256950;61;20426;-64
2021/12/15 04:18:50;0.00;0.00;0.62;0.00;0.00;0.62;5.23;4.50;;;22.00;29.50;;;;;;2257754;61;20398;-61
2021/12/15 04:21:38;0.00;0.00;0.62;0.00;0.00;0.62;5.23;4.73;;;22.00;29.50;;;;;;2258114;61;20359;-60
2021/12/15 04:24:26;0.00;0.00;0.62;0.00;0.00;0.62;5.23;4.33;;;22.00;29.50;;;;;;2256752;61;20359;-61
2021/12/15 04:27:11;0.00;0.00;0.62;0.00;0.00;0.62;5.03;4.53;;;22.00;29.50;;;;;;2258080;61;20363;-64
2021/12/15 04:29:56;0.00;0.00;0.62;0.00;0.00;0.62;4.27;3.87;;;22.00;29.50;;;;;;2257278;61;20463;-60
2021/12/15 04:32:48;0.00;0.00;0.62;0.00;0.00;0.62;5.50;4.23;;;22.00;29.50;;;;;;2257257;61;20391;-63
2021/12/15 04:35:33;0.00;0.00;0.62;0.00;0.00;0.62;5.20;4.23;;;22.00;29.50;;;;;;2257874;61;20386;-61
2021/12/15 04:38:22;0.00;0.00;0.62;0.00;0.00;0.62;4.73;4.20;;;22.00;29.50;;;;;;2256840;61;20359;-62
2021/12/15 04:41:10;0.00;0.00;0.62;0.00;0.00;0.62;5.77;4.80;;;22.00;29.50;;;;;;2257617;61;20359;-62
2021/12/15 04:43:57;0.00;0.00;0.62;0.00;0.00;0.62;5.90;4.93;;;22.00;29.50;;;;;;2257908;61;20409;-64
2021/12/15 04:46:47;0.00;0.00;0.62;0.00;0.00;0.62;4.37;3.97;;;22.00;29.50;;;;;;2256989;61;20391;-62
2021/12/15 04:49:35;0.00;0.00;0.62;0.00;0.00;0.62;4.17;3.77;;;21.90;29.50;;;;;;2257757;61;20398;-61
2021/12/15 04:52:24;0.00;0.00;0.62;0.00;0.00;0.62;5.37;4.50;;;22.00;29.50;;;;;;2257231;61;20808;-60
2021/12/15 04:55:11;0.00;0.00;0.62;0.00;0.00;0.62;4.87;4.37;;;21.90;29.50;;;;;;2257437;61;20382;-63
2021/12/15 04:57:57;0.00;0.00;0.62;0.00;0.00;0.62;4.53;4.10;;;21.90;29.50;;;;;;2257864;61;20429;-61
2021/12/15 05:00:47;0.00;0.00;0.62;0.00;0.00;0.62;5.40;4.90;;;21.90;29.50;;;;;;2256705;61;20362;-63
2021/12/15 05:03:33;0.00;0.00;0.62;0.00;0.00;0.62;4.50;4.10;;;21.90;29.50;;;;;;2257635;61;20398;-63
2021/12/15 05:06:18;0.00;0.00;0.62;0.00;0.00;0.62;4.47;4.00;;;21.90;29.50;;;;;;2257515;61;20383;-60
2021/12/15 05:09:05;0.00;0.00;0.62;0.00;0.00;0.62;4.30;3.70;;;21.90;29.60;;;;;;2256800;61;20422;-61
2021/12/15 05:11:53;0.00;0.00;0.62;0.00;0.00;0.62;5.30;4.60;;;21.90;29.60;;;;;;2257904;61;20366;-60
2021/12/15 05:14:38;0.00;0.00;0.62;0.00;0.00;0.62;4.03;3.70;;;21.90;29.60;;;;;;2256879;61;20430;-60
2021/12/15 05:17:23;0.00;0.00;0.62;0.00;0.00;0.62;4.50;3.87;;;21.90;29.60;;;;;;2257615;61;20367;-62
2021/12/15 05:20:09;0.00;0.00;0.62;0.00;0.00;0.62;4.90;4.47;;;21.90;29.60;;;;;;2257793;61;20382;-61
2021/12/15 05:22:55;0.00;0.00;0.62;0.00;0.00;0.62;4.50;4.10;;;21.90;29.70;;;;;;2256559;61;20786;-61
2021/12/15 05:25:40;0.00;0.00;0.62;0.00;0.00;0.62;4.27;3.87;;;21.90;29.70;;;;;;2257476;61;20427;-61
2021/12/15 05:28:27;0.00;0.00;0.62;0.00;0.00;0.62;4.23;3.83;;;21.90;29.70;;;;;;2257771;61;20367;-63
2021/12/15 05:31:12;0.00;0.00;0.62;0.00;0.00;0.62;5.23;4.63;;;21.80;29.60;;;;;;2256661;61;20797;-60
2021/12/15 05:33:57;0.00;0.00;0.62;0.00;0.00;0.62;5.20;3.97;;;21.80;29.60;;;;;;2257579;61;20419;-63
2021/12/15 05:36:44;0.00;0.00;0.62;0.00;0.00;0.62;4.77;3.97;;;21.80;29.60;;;;;;2257175;61;20362;-63
2021/12/15 05:39:29;0.00;0.00;0.62;0.00;0.00;0.62;4.97;4.23;;;21.80;29.70;;;;;;2257199;61;20358;-60
2021/12/15 05:42:14;0.00;0.00;0.62;0.00;0.00;0.62;4.03;3.63;;;21.80;29.70;;;;;;2257784;61;20710;-62
2021/12/15 05:45:00;0.00;0.00;0.62;0.00;0.00;0.62;3.53;3.20;;;21.80;29.70;;;;;;2256630;61;20449;-62
2021/12/15 05:47:45;0.00;0.00;0.62;0.00;0.00;0.62;3.83;3.53;;;21.80;29.70;;;;;;2257125;61;20363;-61
2021/12/15 05:50:32;0.00;0.00;0.62;0.00;0.00;0.62;4.03;3.67;;;21.80;29.70;;;;;;2257776;61;20394;-60
2021/12/15 05:53:18;0.00;0.00;0.62;0.00;0.00;0.62;4.90;3.80;;;21.80;29.80;;;;;;2256628;61;20378;-61
2021/12/15 05:56:04;0.00;0.00;0.62;0.00;0.00;0.62;3.83;3.40;;;21.80;29.80;;;;;;2257768;61;20418;-63
2021/12/15 05:58:49;0.00;0.00;0.62;0.00;0.00;0.62;4.17;3.77;;;21.80;29.80;;;;;;2257346;61;20707;-62
2021/12/15 06:01:35;0.00;0.00;0.62;0.00;0.00;0.62;3.67;3.37;;;21.80;29.80;;;;;;2257124;61;20519;-61
2021/12/15 06:04:21;0.00;0.00;0.62;0.00;0.00;0.62;4.00;3.60;;;21.80;29.80;;;;;;2257616;61;20591;-63
2021/12/15 06:07:06;0.00;0.00;0.62;0.00;0.00;0.62;6.17;5.20;;;21.80;29.80;;;;;;2256652;61;20383;-61
2021/12/15 06:09:51;0.00;0.00;0.62;0.00;0.00;0.62;6.43;5.70;;;21.80;29.80;;;;;;2257353;61;20387;-60
2021/12/15 06:12:37;0.00;0.00;0.62;0.00;0.00;0.62;5.77;5.17;;;21.80;29.80;;;;;;2257914;61;20409;-61
2021/12/15 06:15:25;0.00;0.00;0.62;0.00;0.00;0.62;6.50;5.60;;;21.80;29.80;;;;;;2256629;61;20397;-63
2021/12/15 06:18:14;0.00;0.00;0.62;0.00;0.00;0.62;7.03;5.50;;;21.80;29.80;;;;;;2257869;61;20355;-63
2021/12/15 06:20:59;0.00;0.00;0.62;0.00;0.00;0.62;6.83;5.80;;;21.70;29.80;;;;;;2257039;61;20355;-63
2021/12/15 06:23:44;0.00;0.00;0.62;0.00;0.00;0.62;6.33;5.70;;;21.70;29.80;;;;;;2256858;61;20437;-63
2021/12/15 06:26:29;0.00;0.00;0.62;0.00;0.00;0.62;7.40;6.47;;;21.70;29.80;;;;;;2257884;61;20355;-63
2021/12/15 06:29:15;0.00;0.00;0.62;0.00;0.00;0.62;6.83;6.03;;;21.70;29.80;;;;;;2256625;61;20363;-62
2021/12/15 06:32:00;0.00;0.00;0.62;0.00;0.00;0.62;8.13;6.90;;;21.70;29.80;;;;;;2257443;61;20366;-62
2021/12/15 06:39:12;0.00;0.00;0.62;0.00;0.00;0.62;8.60;7.70;;;21.70;29.90;;;;;;2255735;61;20355;-62
2021/12/15 06:41:57;0.00;0.00;0.62;0.00;0.00;0.62;8.57;7.70;;;21.70;29.90;;;;;;2258307;61;20378;-63
2021/12/15 06:44:42;0.00;0.00;0.62;0.00;0.00;0.62;7.90;6.87;;;21.70;29.90;;;;;;2257056;61;20374;-59
2021/12/15 06:57:15;0.00;0.00;0.62;0.00;0.00;0.62;7.90;6.83;;;21.70;29.90;;;;;;2258390;61;20436;-62
2021/12/15 06:59:52;0.00;0.00;0.62;0.00;0.00;0.62;9.33;8.23;;;21.60;29.90;;;;;;2257271;61;20469;-63
2021/12/15 07:02:39;0.00;0.00;0.62;0.00;0.00;0.62;9.30;7.83;;;21.60;29.90;;;;;;2258494;61;20351;-61
2021/12/15 07:05:25;0.00;0.00;0.62;0.00;0.00;0.62;9.63;8.63;;;21.60;29.90;;;;;;2257499;61;20406;-60
2021/12/15 07:08:12;0.00;0.00;0.62;0.00;0.00;0.62;8.83;8.00;;;21.60;29.90;;;;;;2257694;61;20355;-57
2021/12/15 07:10:59;0.00;0.00;0.62;0.00;0.00;0.62;8.47;7.60;;;21.60;29.90;;;;;;2258217;61;20421;-63
2021/12/15 07:13:45;0.00;0.00;0.62;0.00;0.00;0.62;8.20;7.40;;;21.50;29.80;;;;;;2257042;61;20614;-62
2021/12/15 07:16:32;0.00;0.00;0.62;0.00;0.00;0.62;8.20;7.40;;;21.50;29.80;;;;;;2258103;61;20362;-64
2021/12/15 07:19:32;0.00;0.00;0.62;0.00;0.00;0.62;8.77;7.87;;;21.50;29.80;;;;;;2258230;61;20707;-60
2021/12/15 07:22:43;0.00;0.00;0.62;0.00;0.00;0.62;8.00;7.10;;;21.50;29.90;;;;;;2257304;61;20742;-62
2021/12/15 07:25:29;0.00;0.00;0.62;0.00;0.00;0.62;8.20;6.67;;;21.50;30.30;;;;;;2257994;61;20393;-60
2021/12/15 07:28:15;0.00;0.00;0.62;0.00;0.00;0.62;9.37;7.87;;;21.50;29.80;;;;;;2257086;61;20587;-59
2021/12/15 07:31:03;0.00;0.00;0.62;0.00;0.00;0.62;9.37;8.37;;;21.50;29.90;;;;;;2257920;61;20414;-63
2021/12/15 07:33:48;0.00;0.00;0.62;0.00;0.00;0.62;8.27;7.43;;;21.50;29.90;;;;;;2257998;61;20625;-62
2021/12/15 07:36:33;0.00;0.00;0.62;0.00;0.00;0.62;9.37;8.20;;;21.50;29.90;;;;;;2257348;61;20562;-64
2021/12/15 07:39:18;0.00;0.00;0.62;0.00;0.00;0.62;8.27;7.47;;;21.50;29.90;;;;;;2258253;61;20432;-63
2021/12/15 07:42:10;0.00;0.00;0.62;0.00;0.00;0.62;8.90;8.00;;;21.50;30.40;;;;;;2257594;61;20785;-62
2021/12/15 07:44:55;0.00;0.00;0.62;0.00;0.00;0.62;8.27;7.47;;;21.50;29.90;;;;;;2257426;61;20379;-61
2021/12/15 07:47:41;0.00;0.00;0.62;0.00;0.00;0.62;9.17;8.27;;;21.50;29.90;;;;;;2257986;61;20763;-62
2021/12/15 07:50:29;0.00;0.00;0.62;0.00;0.00;0.62;9.07;8.17;;;21.50;29.90;;;;;;2256989;61;20751;-62
2021/12/15 07:53:15;0.00;0.00;0.62;0.00;0.00;0.62;7.77;6.93;;;21.40;29.80;;;;;;2257835;61;20711;-61
2021/12/15 07:56:00;0.00;0.00;0.62;0.00;0.00;0.62;9.33;7.53;;;21.40;29.80;;;;;;2258110;61;20429;-59
2021/12/15 07:58:45;0.00;0.00;0.62;0.00;0.00;0.62;8.50;7.17;;;21.40;29.80;;;;;;2257232;61;20444;-63
2021/12/15 08:01:30;0.00;0.00;0.62;0.00;0.00;0.62;8.50;7.53;;;21.40;29.80;;;;;;2258166;61;20433;-62
2021/12/15 08:04:16;0.00;0.00;0.62;0.00;0.00;0.62;7.40;6.70;;;21.40;29.80;;;;;;2257451;61;20370;-62
2021/12/15 08:07:01;0.00;0.00;0.62;0.00;0.00;0.62;7.83;7.03;;;21.40;29.80;;;;;;2257570;61;20382;-60
2021/12/15 08:09:49;0.00;0.00;0.62;0.00;0.00;0.62;8.27;7.33;;;21.40;29.80;;;;;;2258176;61;20456;-59
2021/12/15 08:12:34;0.00;0.00;0.62;0.00;0.00;0.62;8.13;7.27;;;21.40;29.80;;;;;;2257367;61;20435;-60
2021/12/15 08:15:20;0.00;0.00;0.62;0.00;0.00;0.62;7.80;7.10;;;21.40;29.80;;;;;;2257832;61;20378;-63
2021/12/15 08:18:05;0.00;0.00;0.62;0.00;0.00;0.62;7.60;6.80;;;21.40;29.80;;;;;;2258216;61;20363;-60
2021/12/15 08:20:51;0.00;0.00;0.62;0.00;0.00;0.62;8.67;7.27;;;21.40;29.80;;;;;;2257156;61;20383;-61
2021/12/15 08:23:36;0.00;0.00;0.62;0.00;0.00;0.62;6.73;6.13;;;21.40;29.90;;;;;;2257972;61;20478;-62
2021/12/15 08:26:21;0.00;0.00;0.62;0.00;0.00;0.62;7.83;6.77;;;21.40;29.80;;;;;;2257637;61;20378;-62
2021/12/15 08:29:07;0.00;0.00;0.62;0.00;0.00;0.62;6.80;6.10;;;21.40;29.90;;;;;;2257229;61;20370;-61
2021/12/15 08:31:52;0.00;0.00;0.62;0.00;0.00;0.62;7.60;6.53;;;21.40;29.90;;;;;;2258005;61;20828;-57
2021/12/15 08:34:37;0.00;0.00;0.62;0.00;0.00;0.62;7.20;6.50;;;21.40;29.80;;;;;;2257120;61;20425;-64
2021/12/15 08:37:23;0.00;0.00;0.62;0.00;0.00;0.62;7.00;6.13;;;21.40;29.80;;;;;;2257700;61;20354;-64
2021/12/15 08:40:10;0.00;0.00;0.62;0.00;0.00;0.62;7.07;6.37;;;21.40;29.80;;;;;;2258029;61;20494;-63
2021/12/15 08:42:55;0.00;0.00;0.62;0.00;0.00;0.62;7.53;6.43;;;21.40;29.80;;;;;;2256872;61;20391;-62
2021/12/15 08:45:48;0.00;0.00;0.62;0.00;0.00;0.62;6.60;5.93;;;21.40;29.90;;;;;;2257641;61;20409;-59
2021/12/15 08:48:35;0.00;0.00;0.62;0.00;0.00;0.62;7.00;6.30;;;21.40;29.90;;;;;;2257762;61;20766;-63
2021/12/15 08:51:25;0.00;0.00;0.62;0.00;0.00;0.62;8.37;7.57;;;21.40;29.80;;;;;;2257120;61;20430;-63
2021/12/15 08:54:20;0.00;0.00;0.62;0.00;0.00;0.62;7.97;7.17;;;21.40;29.80;;;;;;2257689;61;20650;-59
2021/12/15 08:57:05;0.00;0.00;0.62;0.00;0.00;0.62;7.20;6.50;;;21.40;29.80;;;;;;2256891;61;20371;-58
2021/12/15 08:59:50;0.00;0.00;0.62;0.00;0.00;0.62;6.90;6.20;;;21.40;29.80;;;;;;2257668;61;20718;-63
2021/12/15 09:02:36;0.00;0.00;0.62;0.00;0.00;0.62;6.40;5.83;;;21.40;29.90;;;;;;2258190;61;20406;-63
2021/12/15 09:05:22;0.00;0.00;0.62;0.00;0.00;0.62;7.00;6.30;;;21.40;29.90;;;;;;2256744;61;20597;-60
2021/12/15 09:08:09;0.00;0.00;0.62;0.00;0.00;0.62;6.43;5.83;;;21.40;29.90;;;;;;2258116;61;20726;-61
2021/12/15 09:11:04;0.00;0.00;0.62;0.00;0.00;0.62;6.90;6.03;;;21.30;29.80;;;;;;2257250;61;20418;-57
2021/12/15 09:13:52;0.00;0.00;0.62;0.00;0.00;0.62;6.60;5.90;;;21.40;29.90;;;;;;2256616;61;20367;-63
2021/12/15 09:16:38;0.00;0.00;0.62;0.00;0.00;0.62;6.70;6.10;;;21.40;29.90;;;;;;2257996;61;20355;-62
2021/12/15 09:19:24;0.00;0.00;0.62;0.00;0.00;0.62;7.13;6.43;;;21.40;29.90;;;;;;2256844;61;20476;-57
2021/12/15 09:22:08;0.00;0.00;0.62;0.00;0.00;0.62;6.67;5.80;;;21.40;29.90;;;;;;2257624;61;20346;-61
2021/12/15 09:24:53;0.00;0.00;0.62;0.00;0.00;0.62;5.83;5.33;;;21.30;29.80;;;;;;2257831;61;20395;-61
2021/12/15 09:27:41;0.00;0.00;0.62;0.00;0.00;0.62;5.93;5.33;;;21.30;29.80;;;;;;2256806;61;20359;-62
2021/12/15 09:30:30;0.00;0.00;0.62;0.00;0.00;0.62;6.30;5.70;;;21.30;29.80;;;;;;2257826;61;20386;-62
2021/12/15 09:33:20;0.00;0.00;0.62;0.00;0.00;0.62;6.30;5.70;;;21.30;29.80;;;;;;2257159;61;20351;-60
2021/12/15 09:36:05;0.00;0.00;0.62;0.00;0.00;0.62;5.97;5.37;;;21.30;29.80;;;;;;2257253;61;20377;-61
2021/12/15 09:38:54;0.00;0.00;0.62;0.00;0.00;0.62;6.10;5.50;;;21.30;29.80;;;;;;2257911;61;20379;-61
2021/12/15 09:41:41;0.00;0.00;0.62;0.00;0.00;0.62;5.73;5.23;;;21.30;29.80;;;;;;2256726;61;20498;-60
2021/12/15 09:44:28;0.00;0.00;0.62;0.00;0.00;0.62;6.50;5.77;;;21.30;29.80;;;;;;2257423;61;20723;-64
2021/12/15 09:56:26;0.00;0.00;0.62;0.00;0.00;0.62;5.20;4.70;;;21.30;29.90;;;;;;2257833;61;20611;-59
2021/12/15 10:03:01;0.00;0.00;0.62;0.00;0.00;0.62;5.20;4.70;;;21.30;29.90;;;;;;2244306;61;20374;-62
2021/12/15 10:05:59;0.00;0.00;0.62;0.00;0.00;0.62;4.93;4.53;;;21.20;29.90;;;;;;2257158;61;20387;-62
2021/12/15 10:17:52;0.00;0.00;0.62;0.00;0.00;0.62;4.00;3.70;;;21.20;29.90;;;;;;2255451;61;20409;-61
2021/12/15 10:20:38;0.00;0.00;0.62;0.00;0.00;0.62;4.70;4.13;;;21.20;29.90;;;;;;2257119;61;20383;-61
2021/12/15 10:23:31;0.00;0.00;0.62;0.00;0.00;0.62;4.03;3.63;;;21.20;29.90;;;;;;2257123;61;20401;-62
2021/12/15 10:26:17;0.00;0.00;0.62;0.00;0.00;0.62;5.30;4.80;;;21.20;29.90;;;;;;2256697;61;20471;-61
2021/12/15 10:29:07;0.00;0.00;0.62;0.00;0.00;0.62;5.10;4.60;;;21.20;29.90;;;;;;2257323;61;20359;-59
2021/12/15 10:32:01;0.00;0.00;0.62;0.00;0.00;0.62;4.53;4.13;;;21.20;29.90;;;;;;2257580;61;20395;-59
2021/12/15 10:34:59;0.00;0.00;0.62;0.00;0.00;0.62;4.73;4.23;;;21.20;29.90;;;;;;2256864;61;20386;-63
2021/12/15 10:38:11;0.00;0.00;0.62;0.00;0.00;0.62;4.60;4.20;;;21.20;29.90;;;;;;2257717;61;20474;-60
2021/12/15 10:41:01;0.00;0.00;0.62;0.00;0.00;0.62;5.40;4.90;;;21.20;29.90;;;;;;2256667;61;20746;-60
2021/12/15 10:43:52;0.00;0.00;0.62;0.00;0.00;0.62;4.73;4.33;;;21.20;29.90;;;;;;2257182;61;20398;-62
2021/12/15 10:46:42;0.00;0.00;0.62;0.00;0.00;0.62;5.83;5.07;;;21.20;29.90;;;;;;2257666;61;20362;-60
2021/12/15 10:49:29;0.00;0.00;0.62;0.00;0.00;0.62;4.60;4.20;;;21.20;29.90;;;;;;2256687;61;20467;-62
2021/12/15 10:52:15;0.00;0.00;0.62;0.00;0.00;0.62;4.90;4.23;;;21.20;29.90;;;;;;2257532;61;20689;-62
2021/12/15 10:55:04;0.00;0.00;0.62;0.00;0.00;0.62;4.80;4.40;;;21.20;29.90;;;;;;2256943;61;20378;-61
2021/12/15 10:57:49;0.00;0.00;0.62;0.00;0.00;0.62;4.80;4.30;;;21.20;29.90;;;;;;2257355;61;20385;-60
2021/12/15 11:00:36;0.00;0.00;0.62;0.00;0.00;0.62;4.60;4.20;;;21.20;29.90;;;;;;2257877;61;20351;-58
2021/12/15 11:03:23;0.00;0.00;0.62;0.00;0.00;0.62;5.17;4.73;;;21.20;30.50;;;;;;2256686;61;20355;-61
2021/12/15 11:06:21;0.00;0.00;0.62;0.00;0.00;0.62;5.80;5.30;;;21.20;29.90;;;;;;2257210;61;20379;-60
2021/12/15 11:09:14;0.00;0.00;0.62;0.00;0.00;0.62;4.87;4.37;;;21.20;30.00;;;;;;2257314;61;20367;-62
2021/12/15 11:12:04;0.00;0.00;0.62;0.00;0.00;0.62;5.07;4.57;;;21.20;30.00;;;;;;2256905;61;20735;-61
2021/12/15 11:14:55;0.00;0.00;0.62;0.00;0.00;0.62;4.87;4.47;;;21.20;30.00;;;;;;2257346;61;20382;-62
2021/12/15 11:17:43;0.00;0.00;0.62;0.00;0.00;0.62;5.20;4.43;;;21.20;30.00;;;;;;2256668;61;20423;-62
2021/12/15 11:20:30;0.00;0.00;0.62;0.00;0.00;0.62;6.50;5.90;;;21.10;30.00;;;;;;2257264;61;20355;-62
2021/12/15 11:23:17;0.00;0.00;0.62;0.00;0.00;0.62;5.33;4.83;;;21.20;30.00;;;;;;2258151;61;20355;-60
2021/12/15 11:26:10;0.00;0.00;0.62;0.00;0.00;0.62;6.20;5.60;;;21.10;30.00;;;;;;2257213;61;20383;-61
2021/12/15 11:28:54;0.00;0.00;0.62;0.00;0.00;0.62;5.30;4.80;;;21.10;30.00;;;;;;2258360;61;20402;-59
2021/12/15 11:31:39;0.00;0.00;0.62;0.00;0.00;0.62;5.80;5.30;;;21.10;30.00;;;;;;2257614;61;20751;-61
2021/12/15 11:34:24;0.00;0.00;0.62;0.00;0.00;0.62;5.20;4.70;;;21.10;30.00;;;;;;2257328;61;20355;-61
2021/12/15 11:37:09;0.00;0.00;0.62;0.00;0.00;0.62;4.97;4.47;;;21.10;30.00;;;;;;2258293;61;20777;-61
2021/12/15 11:40:02;0.00;0.00;0.62;0.00;0.00;0.62;5.70;5.10;;;21.10;30.00;;;;;;2257057;61;20510;-62
2021/12/15 11:42:48;0.00;0.00;0.62;0.00;0.00;0.62;5.20;4.60;;;21.10;30.70;;;;;;2258032;61;20409;-64
2021/12/15 11:45:38;0.00;0.00;0.62;0.00;0.00;0.62;6.00;5.20;;;21.10;30.00;;;;;;2258133;61;20387;-63
2021/12/15 11:48:27;0.00;0.00;0.62;0.00;0.00;0.62;6.10;5.50;;;21.10;30.00;;;;;;2257055;61;20398;-61
2021/12/15 11:51:12;0.00;0.00;0.62;0.00;0.00;0.62;6.67;5.03;;;21.10;30.10;;;;;;2258156;61;20387;-62
2021/12/15 11:53:58;0.00;0.00;0.62;0.00;0.00;0.62;6.07;5.57;;;21.00;30.00;;;;;;2256790;61;20359;-63
2021/12/15 11:56:44;0.00;0.00;0.62;0.00;0.00;0.62;6.70;5.33;;;21.10;30.10;;;;;;2257523;61;20354;-61
2021/12/15 11:59:34;0.00;0.00;0.62;0.00;0.00;0.62;6.30;5.70;;;21.00;30.00;;;;;;2258222;61;20367;-59
2021/12/15 12:02:21;0.00;0.00;0.62;0.00;0.00;0.62;6.63;5.70;;;21.00;30.00;;;;;;2256975;61;20359;-63
2021/12/15 12:05:11;0.00;0.00;0.62;0.00;0.00;0.62;6.67;6.07;;;21.00;30.10;;;;;;2257692;61;20594;-63